createdAt,value
2022-12-28T00:01:33.772Z,10.80
2022-12-28T00:04:04.677Z,12.35
2022-12-28T00:06:34.331Z,13.30
2022-12-28T00:09:05.683Z,12.10
2022-12-28T00:11:35.419Z,10.40
2022-12-28T00:14:05.186Z,12.00
2022-12-28T00:16:35.459Z,10.60
2022-12-28T00:19:06.225Z,12.55
2022-12-28T00:21:35.903Z,10.77
2022-12-28T00:24:36.637Z,10.50
2022-12-28T00:27:12.158Z,9.67
2022-12-28T00:32:56.260Z,8.80
2022-12-28T00:35:32.365Z,11.00
2022-12-28T00:38:06.778Z,9.80
2022-12-28T00:40:36.925Z,10.00
2022-12-28T00:43:06.193Z,9.97
2022-12-28T00:45:35.432Z,8.57
2022-12-28T00:48:06.348Z,11.60
2022-12-28T00:50:37.797Z,10.10
2022-12-28T00:53:07.365Z,10.63
2022-12-28T00:55:36.810Z,10.40
2022-12-28T00:58:08.217Z,10.05
2022-12-28T01:00:38.207Z,8.90
2022-12-28T01:03:07.932Z,9.50
2022-12-28T01:05:39.907Z,11.70
2022-12-28T01:08:11.389Z,8.75
2022-12-28T01:10:41.552Z,10.00
2022-12-28T01:13:11.514Z,8.20
2022-12-28T01:15:40.892Z,8.55
2022-12-28T01:18:12.674Z,6.60
2022-12-28T01:20:45.336Z,8.40
2022-12-28T01:23:14.718Z,8.10
2022-12-28T01:25:44.156Z,11.85
2022-12-28T01:28:13.590Z,9.15
2022-12-28T01:30:44.867Z,10.15
2022-12-28T01:33:14.491Z,8.43
2022-12-28T01:35:44.005Z,6.95
2022-12-28T01:38:14.395Z,8.90
2022-12-28T01:40:44.127Z,7.95
2022-12-28T01:43:15.018Z,11.25
2022-12-28T01:45:59.447Z,8.35
2022-12-28T01:48:28.786Z,11.73
2022-12-28T01:50:59.191Z,9.60
2022-12-28T01:53:28.771Z,6.90
2022-12-28T01:55:58.106Z,6.00
2022-12-28T01:58:30.322Z,12.33
2022-12-28T02:03:31.590Z,7.65
2022-12-28T02:06:02.952Z,6.60
2022-12-28T02:08:33.877Z,8.27
2022-12-28T02:11:04.135Z,9.55
2022-12-28T02:13:34.381Z,9.30
2022-12-28T02:16:05.138Z,9.60
2022-12-28T02:18:34.711Z,8.30
2022-12-28T02:21:21.615Z,10.75
2022-12-28T02:24:05.324Z,8.63
2022-12-28T02:26:39.125Z,7.40
2022-12-28T02:29:29.349Z,9.25
2022-12-28T02:32:03.164Z,9.10
2022-12-28T02:34:39.117Z,7.90
2022-12-28T02:37:11.806Z,8.10
2022-12-28T02:42:11.558Z,8.40
2022-12-28T02:45:02.772Z,7.77
2022-12-28T02:47:53.548Z,8.60
2022-12-28T02:50:25.226Z,9.60
2022-12-28T02:53:08.945Z,8.33
2022-12-28T02:56:04.739Z,12.10
2022-12-28T02:58:47.301Z,8.15
2022-12-28T03:03:50.945Z,9.20
2022-12-28T03:06:44.561Z,9.75
2022-12-28T03:09:16.636Z,10.75
2022-12-28T03:11:51.036Z,9.70
2022-12-28T03:14:24.112Z,11.00
2022-12-28T03:17:13.250Z,8.85
2022-12-28T03:20:08.396Z,10.47
2022-12-28T03:22:58.238Z,7.40
2022-12-28T03:25:48.574Z,9.10
2022-12-28T03:28:38.814Z,8.15
2022-12-28T03:31:10.893Z,10.45
2022-12-28T03:33:48.936Z,6.90
2022-12-28T03:36:23.353Z,7.70
2022-12-28T03:38:56.173Z,7.95
2022-12-28T03:41:30.042Z,11.75
2022-12-28T03:44:09.263Z,9.75
2022-12-28T03:46:43.121Z,9.90
2022-12-28T03:49:12.991Z,10.20
2022-12-28T03:51:43.147Z,8.93
2022-12-28T03:54:15.817Z,10.18
2022-12-28T03:56:46.910Z,8.50
2022-12-28T03:59:16.940Z,10.30
2022-12-28T04:01:48.571Z,11.20
2022-12-28T04:04:19.871Z,9.85
2022-12-28T04:06:50.131Z,8.05
2022-12-28T04:09:19.710Z,8.75
2022-12-28T04:11:50.107Z,9.65
2022-12-28T04:14:26.201Z,10.75
2022-12-28T04:16:55.998Z,10.00
2022-12-28T04:19:25.671Z,9.27
2022-12-28T04:21:54.978Z,10.97
2022-12-28T04:24:24.399Z,10.80
2022-12-28T04:26:53.927Z,11.10
2022-12-28T04:29:23.646Z,11.20
2022-12-28T04:32:02.633Z,7.20
2022-12-28T04:34:32.216Z,7.60
2022-12-28T04:37:11.474Z,7.80
2022-12-28T04:39:56.167Z,10.65
2022-12-28T04:42:26.465Z,12.35
2022-12-28T04:44:55.871Z,7.70
2022-12-28T04:47:25.427Z,10.10
2022-12-28T04:49:55.021Z,9.47
2022-12-28T04:52:24.543Z,11.55
2022-12-28T04:54:53.935Z,8.85
2022-12-28T04:57:23.456Z,14.13
2022-12-28T04:59:52.830Z,11.90
2022-12-28T05:02:22.236Z,10.65
2022-12-28T05:04:51.822Z,7.50
2022-12-28T05:07:21.145Z,10.70
2022-12-28T05:09:50.669Z,9.00
2022-12-28T05:12:22.009Z,10.30
2022-12-28T05:14:51.216Z,10.30
2022-12-28T05:17:20.698Z,8.10
2022-12-28T05:19:50.316Z,9.65
2022-12-28T05:22:20.149Z,9.40
2022-12-28T05:24:49.529Z,11.65
2022-12-28T05:27:19.019Z,10.10
2022-12-28T05:29:48.563Z,8.80
2022-12-28T05:32:17.845Z,9.75
2022-12-28T05:34:47.629Z,15.35
2022-12-28T05:37:21.818Z,10.55
2022-12-28T05:39:51.760Z,10.73
2022-12-28T05:42:21.104Z,8.80
2022-12-28T05:44:50.640Z,8.90
2022-12-28T05:47:19.939Z,9.50
2022-12-28T05:49:49.344Z,9.30
2022-12-28T05:52:18.686Z,10.25
2022-12-28T05:54:48.137Z,9.90
2022-12-28T05:57:17.638Z,10.80
2022-12-28T05:59:47.038Z,8.30
2022-12-28T06:02:23.044Z,9.70
2022-12-28T06:04:54.027Z,8.45
2022-12-28T06:07:23.316Z,8.70
2022-12-28T06:09:52.520Z,13.37
2022-12-28T06:12:21.818Z,11.63
2022-12-28T06:14:51.013Z,9.60
2022-12-28T06:17:21.128Z,8.90
2022-12-28T06:19:56.101Z,9.20
2022-12-28T06:22:31.412Z,9.17
2022-12-28T06:25:07.365Z,9.30
2022-12-28T06:27:43.146Z,10.95
2022-12-28T06:30:19.327Z,7.80
2022-12-28T06:32:55.284Z,11.50
2022-12-28T06:35:31.616Z,11.10
2022-12-28T06:38:06.953Z,11.65
2022-12-28T06:43:39.653Z,10.23
2022-12-28T06:46:15.187Z,10.17
2022-12-28T06:48:51.267Z,10.30
2022-12-28T06:51:27.788Z,14.90
2022-12-28T06:54:03.787Z,10.97
2022-12-28T06:56:40.364Z,10.85
2022-12-28T06:59:15.876Z,12.40
2022-12-28T07:01:52.676Z,12.63
2022-12-28T07:04:31.474Z,12.67
2022-12-28T07:07:06.852Z,10.85
2022-12-28T07:09:42.680Z,10.97
2022-12-28T07:12:18.218Z,10.00
2022-12-28T07:14:55.014Z,11.70
2022-12-28T07:17:28.764Z,10.00
2022-12-28T07:20:03.880Z,12.53
2022-12-28T07:22:36.349Z,12.10
2022-12-28T07:25:11.129Z,10.07
2022-12-28T07:27:46.826Z,14.90
2022-12-28T07:32:55.052Z,10.40
2022-12-28T07:35:30.283Z,12.27
2022-12-28T07:38:06.029Z,11.43
2022-12-28T07:40:38.879Z,11.70
2022-12-28T07:43:12.774Z,10.70
2022-12-28T07:45:48.222Z,10.50
2022-12-28T07:48:23.623Z,11.20
2022-12-28T07:50:58.922Z,11.70
2022-12-28T07:53:34.574Z,11.05
2022-12-28T07:56:13.171Z,11.50
2022-12-28T08:01:21.569Z,11.60
2022-12-28T08:04:03.794Z,11.78
2022-12-28T08:06:40.228Z,12.95
2022-12-28T08:09:16.034Z,13.05
2022-12-28T08:11:52.908Z,10.37
2022-12-28T08:14:27.911Z,11.90
2022-12-28T08:17:01.324Z,11.40
2022-12-28T08:19:36.512Z,11.60
2022-12-28T08:22:12.187Z,10.35
2022-12-28T08:24:48.376Z,11.55
2022-12-28T08:27:19.520Z,9.60
2022-12-28T08:29:50.224Z,10.07
2022-12-28T08:32:19.675Z,11.83
2022-12-28T08:34:55.885Z,9.33
2022-12-28T08:37:29.585Z,10.40
2022-12-28T08:40:02.640Z,12.27
2022-12-28T08:42:35.169Z,11.43
2022-12-28T08:45:09.635Z,9.57
2022-12-28T08:47:44.992Z,10.15
2022-12-28T08:50:23.768Z,8.25
2022-12-28T08:53:02.138Z,11.20
2022-12-28T08:55:41.175Z,8.35
2022-12-28T08:58:20.704Z,10.35
2022-12-28T09:03:37.488Z,11.95
2022-12-28T09:06:22.878Z,13.15
2022-12-28T11:15:29.529Z,7.95
2022-12-28T11:18:03.959Z,9.40
2022-12-28T11:20:39.751Z,6.67
2022-12-28T11:23:19.267Z,7.57
2022-12-28T11:25:54.401Z,7.92
2022-12-28T11:28:29.881Z,7.20
2022-12-28T11:31:07.616Z,7.60
2022-12-28T12:10:55.079Z,6.90
2022-12-28T12:13:45.807Z,13.90
2022-12-28T12:16:35.661Z,10.57
2022-12-28T12:19:15.568Z,9.97
2022-12-28T12:21:58.767Z,14.23
2022-12-28T12:24:37.754Z,8.57
2022-12-28T12:27:21.117Z,9.43
2022-12-28T12:30:03.672Z,8.13
2022-12-28T12:32:44.521Z,9.35
2022-12-28T12:35:22.808Z,9.77
2022-12-28T12:38:02.634Z,9.63
2022-12-28T12:41:17.523Z,7.30
2022-12-28T12:44:07.097Z,6.93
2022-12-28T12:47:15.737Z,9.37
2022-12-28T12:50:19.914Z,9.20
2022-12-28T12:53:05.511Z,6.73
2022-12-28T12:55:58.036Z,9.57
2022-12-28T12:58:44.456Z,9.90
2022-12-28T13:01:30.437Z,9.40
2022-12-28T13:04:17.926Z,9.00
2022-12-28T13:06:58.465Z,8.50
2022-12-28T13:26:15.951Z,9.10
2022-12-28T13:28:54.908Z,8.97
2022-12-28T13:31:33.352Z,7.03
2022-12-28T13:34:19.242Z,8.67
2022-12-28T13:36:51.544Z,6.47
2022-12-28T13:41:54.799Z,7.63
2022-12-28T13:44:36.771Z,9.53
2022-12-28T13:47:14.807Z,9.20
2022-12-28T13:49:49.921Z,10.20
2022-12-28T13:52:26.672Z,8.07
2022-12-28T13:54:59.790Z,8.13
2022-12-28T13:57:51.501Z,8.77
2022-12-28T14:00:24.014Z,6.60
2022-12-28T14:02:57.167Z,9.83
2022-12-28T14:05:30.553Z,9.67
2022-12-28T14:08:02.551Z,7.50
2022-12-28T14:10:35.264Z,6.92
2022-12-28T14:13:13.594Z,9.37
2022-12-28T14:15:44.982Z,9.23
2022-12-28T14:20:52.347Z,10.00
2022-12-28T14:23:25.839Z,9.13
2022-12-28T14:25:58.622Z,12.63
2022-12-28T14:28:35.140Z,13.43
2022-12-28T14:31:07.615Z,13.97
2022-12-28T14:33:41.876Z,14.47
2022-12-28T14:36:22.043Z,12.43
2022-12-28T14:38:58.322Z,11.77
2022-12-28T14:41:34.630Z,13.63
2022-12-28T14:44:09.585Z,10.83
2022-12-28T14:46:40.643Z,9.83
2022-12-28T14:49:37.553Z,9.87
2022-12-28T14:52:37.321Z,11.87
2022-12-28T14:55:22.930Z,20.17
2022-12-28T14:57:58.023Z,20.03
2022-12-28T15:00:29.998Z,15.33
2022-12-28T15:03:15.536Z,17.13
2022-12-28T15:05:51.389Z,16.20
2022-12-28T15:08:22.767Z,14.33
2022-12-28T15:10:54.686Z,14.53
2022-12-28T15:13:26.219Z,11.85
2022-12-28T15:15:59.043Z,13.70
2022-12-28T15:18:30.936Z,19.80
2022-12-28T15:21:06.687Z,11.23
2022-12-28T15:23:36.746Z,13.80
2022-12-28T15:26:08.922Z,14.17
2022-12-28T15:28:39.247Z,17.67
2022-12-28T15:31:12.267Z,15.20
2022-12-28T15:33:43.828Z,16.47
2022-12-28T15:36:17.935Z,14.05
2022-12-28T15:38:49.532Z,12.37
2022-12-28T15:41:37.291Z,13.50
2022-12-28T15:44:08.606Z,15.47
2022-12-28T15:46:39.155Z,15.95
2022-12-28T15:49:11.300Z,18.67
2022-12-28T15:51:41.622Z,18.70
2022-12-28T15:54:12.788Z,18.70
2022-12-28T15:56:43.299Z,17.77
2022-12-28T15:59:15.665Z,22.33
2022-12-28T16:01:47.007Z,25.88
2022-12-28T16:04:17.737Z,28.83
2022-12-28T16:06:48.270Z,30.80
2022-12-28T16:09:18.181Z,32.23
2022-12-28T16:11:53.194Z,35.83
2022-12-28T16:14:25.596Z,39.03
2022-12-28T16:16:55.978Z,43.80
2022-12-28T16:19:26.226Z,53.57
2022-12-28T16:21:56.550Z,65.27
2022-12-28T16:24:28.449Z,59.40
2022-12-28T16:26:58.426Z,64.30
2022-12-28T16:29:28.540Z,57.63
2022-12-28T16:32:01.548Z,56.13
2022-12-28T16:34:31.846Z,55.90
2022-12-28T16:37:02.790Z,52.87
2022-12-28T16:39:34.338Z,49.17
2022-12-28T16:42:06.304Z,50.53
2022-12-28T16:44:36.827Z,48.08
2022-12-28T16:47:07.382Z,44.23
2022-12-28T16:49:40.572Z,41.10
2022-12-28T16:52:10.664Z,40.77
2022-12-28T16:54:40.775Z,36.13
2022-12-28T16:57:10.907Z,38.80
2022-12-28T16:59:41.013Z,38.47
2022-12-28T17:02:14.613Z,36.30
2022-12-28T17:04:45.780Z,35.93
2022-12-28T17:07:16.891Z,32.93
2022-12-28T17:09:50.103Z,36.03
2022-12-28T17:12:20.615Z,37.40
2022-12-28T17:14:50.734Z,35.37
2022-12-28T17:17:20.848Z,45.07
2022-12-28T17:19:51.176Z,54.20
2022-12-28T17:22:22.105Z,53.23
2022-12-28T17:27:22.348Z,35.77
2022-12-28T17:29:51.810Z,43.30
2022-12-28T17:32:22.071Z,37.57
2022-12-28T17:34:52.080Z,37.73
2022-12-28T17:37:22.195Z,39.45
2022-12-28T17:39:52.518Z,36.60
2022-12-28T17:42:22.648Z,36.10
2022-12-28T17:44:52.207Z,30.00
2022-12-28T17:47:22.264Z,34.17
2022-12-28T17:49:52.183Z,32.17
2022-12-28T17:52:23.317Z,26.90
2022-12-28T17:54:53.634Z,29.63
2022-12-28T17:57:24.548Z,31.10
2022-12-28T17:59:54.123Z,27.90
2022-12-28T18:02:24.854Z,27.37
2022-12-28T18:04:55.338Z,29.30
2022-12-28T18:07:25.449Z,35.30
2022-12-28T18:09:56.523Z,32.37
2022-12-28T18:12:26.918Z,31.20
2022-12-28T18:14:56.877Z,34.07
2022-12-28T18:17:27.559Z,30.77
2022-12-28T18:19:57.880Z,32.27
2022-12-28T18:22:27.998Z,46.80
2022-12-28T18:24:58.934Z,48.40
2022-12-28T18:27:28.846Z,45.90
2022-12-28T18:29:59.189Z,46.00
2022-12-28T18:32:29.101Z,42.87
2022-12-28T18:34:59.234Z,46.95
2022-12-28T18:37:29.523Z,40.57
2022-12-28T18:39:59.231Z,34.10
2022-12-28T18:42:30.991Z,37.07
2022-12-28T18:45:00.540Z,32.37
2022-12-28T18:47:32.659Z,35.33
2022-12-28T18:50:03.804Z,36.53
2022-12-28T18:52:35.572Z,35.75
2022-12-28T18:55:09.479Z,39.07
2022-12-28T18:57:39.686Z,33.67
2022-12-28T19:00:12.560Z,33.03
2022-12-28T19:02:42.837Z,37.93
2022-12-28T19:05:13.324Z,40.30
2022-12-28T19:07:49.153Z,38.97
2022-12-28T19:10:21.528Z,38.90
2022-12-28T19:12:51.237Z,41.63
2022-12-28T19:15:21.038Z,36.00
2022-12-28T19:17:50.660Z,34.80
2022-12-28T19:20:20.364Z,36.77
2022-12-28T19:22:50.080Z,34.35
2022-12-28T19:25:19.570Z,37.40
2022-12-28T19:27:49.072Z,35.50
2022-12-28T19:30:19.399Z,36.67
2022-12-28T19:32:50.142Z,40.40
2022-12-28T19:35:21.270Z,35.73
2022-12-28T19:37:51.611Z,38.20
2022-12-28T19:40:21.724Z,34.87
2022-12-28T19:42:51.834Z,40.43
2022-12-28T19:45:21.739Z,36.70
2022-12-28T19:47:51.671Z,34.93
2022-12-28T19:50:23.200Z,36.97
2022-12-28T19:52:53.527Z,42.40
2022-12-28T19:55:23.441Z,49.40
2022-12-28T19:57:53.762Z,53.27
2022-12-28T20:00:23.880Z,68.40
2022-12-28T20:02:53.906Z,80.60
2022-12-28T20:05:25.344Z,63.93
2022-12-28T20:07:55.664Z,51.20
2022-12-28T20:10:25.987Z,41.10
2022-12-28T20:12:56.723Z,41.40
2022-12-28T20:15:26.633Z,43.00
2022-12-28T20:17:56.958Z,48.50
2022-12-28T20:20:30.567Z,49.43
2022-12-28T20:23:03.333Z,49.63
2022-12-28T20:25:34.066Z,45.80
2022-12-28T20:28:05.008Z,43.43
2022-12-28T20:30:35.746Z,44.90
2022-12-28T20:33:05.650Z,44.87
2022-12-28T20:35:36.384Z,40.50
2022-12-28T20:38:08.560Z,36.93
2022-12-28T20:40:38.663Z,41.35
2022-12-28T20:43:24.549Z,40.53
2022-12-28T20:45:54.869Z,41.60
2022-12-28T20:48:24.801Z,40.40
2022-12-28T20:50:58.056Z,41.00
2022-12-28T20:53:29.318Z,40.97
2022-12-28T20:56:08.077Z,37.90
2022-12-28T20:58:38.985Z,35.10
2022-12-28T21:01:11.619Z,43.53
2022-12-28T21:03:41.970Z,43.87
2022-12-28T21:06:12.195Z,39.00
2022-12-28T21:08:41.911Z,42.60
2022-12-28T21:11:12.637Z,41.63
2022-12-28T21:13:44.885Z,41.60
2022-12-28T21:16:15.568Z,42.90
2022-12-28T21:18:45.242Z,40.50
2022-12-28T21:21:16.184Z,38.60
2022-12-28T21:23:46.499Z,43.00
2022-12-28T21:26:17.252Z,39.00
2022-12-28T21:28:47.150Z,39.55
2022-12-28T21:31:16.674Z,39.90
2022-12-28T21:33:46.351Z,43.25
2022-12-28T21:36:16.678Z,43.00
2022-12-28T21:38:46.999Z,43.65
2022-12-28T21:41:38.427Z,44.10
2022-12-28T21:44:09.139Z,42.00
2022-12-28T21:46:39.483Z,45.87
2022-12-28T21:49:09.586Z,45.65
2022-12-28T21:51:40.317Z,45.63
2022-12-28T21:54:12.504Z,42.10
2022-12-28T21:56:43.017Z,42.93
2022-12-28T21:59:13.547Z,42.50
2022-12-28T22:01:58.364Z,44.23
2022-12-28T22:04:46.750Z,42.33
2022-12-28T22:07:17.063Z,44.45
2022-12-28T22:10:04.595Z,46.17
2022-12-28T22:12:34.295Z,46.70
2022-12-28T22:15:24.503Z,44.65
2022-12-28T22:17:56.778Z,48.80
2022-12-28T22:20:26.582Z,49.80
2022-12-28T22:22:56.476Z,45.65
2022-12-28T22:25:27.008Z,50.93
2022-12-28T22:27:57.535Z,42.90
2022-12-28T22:30:27.646Z,51.00
2022-12-28T22:32:57.774Z,46.17
2022-12-28T22:35:28.296Z,50.77
2022-12-28T22:37:58.209Z,50.60
2022-12-28T22:40:27.706Z,47.10
2022-12-28T22:42:57.415Z,47.45
2022-12-28T22:45:26.987Z,47.30
2022-12-28T22:47:59.020Z,46.73
2022-12-28T22:50:28.648Z,42.43
2022-12-28T22:52:58.912Z,44.47
2022-12-28T22:55:29.049Z,44.05
2022-12-28T22:57:58.938Z,41.45
2022-12-28T23:00:28.584Z,45.60
2022-12-28T23:02:59.445Z,49.30
2022-12-28T23:05:29.699Z,42.90
2022-12-28T23:08:00.054Z,45.90
2022-12-28T23:10:30.144Z,47.60
2022-12-28T23:13:00.260Z,42.60
2022-12-28T23:15:29.735Z,47.05
2022-12-28T23:18:19.335Z,43.73
2022-12-28T23:21:07.475Z,45.45
2022-12-28T23:23:55.204Z,47.40
2022-12-28T23:26:42.933Z,44.95
2022-12-28T23:29:12.860Z,45.05
2022-12-28T23:31:42.351Z,52.10
2022-12-28T23:34:12.480Z,48.95
2022-12-28T23:36:41.973Z,50.10
2022-12-28T23:39:11.677Z,50.90
2022-12-28T23:41:50.411Z,56.35
2022-12-28T23:44:20.929Z,61.45
2022-12-28T23:46:55.240Z,61.80
2022-12-28T23:49:28.333Z,63.85
2022-12-28T23:51:58.037Z,67.60
2022-12-28T23:54:27.950Z,71.90
2022-12-28T23:56:58.477Z,78.90
2022-12-28T23:59:28.596Z,72.03
